sensor_id;sensor_type;location;lat;lon;timestamp;P1;durP1;ratioP1;P2;durP2;ratioP2
55364;SDS011;41245;45.384;20.390;2023-08-12T00:01:55;9.65;;;5.15;;
55364;SDS011;41245;45.384;20.390;2023-08-12T00:04:21;9.20;;;5.72;;
55364;SDS011;41245;45.384;20.390;2023-08-12T00:06:47;8.02;;;5.60;;
55364;SDS011;41245;45.384;20.390;2023-08-12T00:09:13;7.35;;;5.78;;
55364;SDS011;41245;45.384;20.390;2023-08-12T00:11:40;7.70;;;5.22;;
55364;SDS011;41245;45.384;20.390;2023-08-12T00:14:06;8.75;;;5.20;;
55364;SDS011;41245;45.384;20.390;2023-08-12T00:16:32;12.80;;;5.93;;
55364;SDS011;41245;45.384;20.390;2023-08-12T00:18:58;7.43;;;5.50;;
55364;SDS011;41245;45.384;20.390;2023-08-12T00:21:25;10.68;;;5.40;;
55364;SDS011;41245;45.384;20.390;2023-08-12T00:23:51;7.05;;;5.97;;
55364;SDS011;41245;45.384;20.390;2023-08-12T00:26:17;8.65;;;6.25;;
55364;SDS011;41245;45.384;20.390;2023-08-12T00:28:43;11.60;;;5.68;;
55364;SDS011;41245;45.384;20.390;2023-08-12T00:31:10;9.35;;;6.10;;
55364;SDS011;41245;45.384;20.390;2023-08-12T00:33:36;10.90;;;6.50;;
55364;SDS011;41245;45.384;20.390;2023-08-12T00:36:02;7.50;;;6.47;;
55364;SDS011;41245;45.384;20.390;2023-08-12T00:38:28;8.90;;;5.72;;
55364;SDS011;41245;45.384;20.390;2023-08-12T00:40:54;7.13;;;5.75;;
55364;SDS011;41245;45.384;20.390;2023-08-12T00:43:20;10.80;;;6.57;;
55364;SDS011;41245;45.384;20.390;2023-08-12T00:45:46;8.55;;;6.65;;
55364;SDS011;41245;45.384;20.390;2023-08-12T00:48:13;8.32;;;6.00;;
55364;SDS011;41245;45.384;20.390;2023-08-12T00:50:40;8.18;;;6.40;;
55364;SDS011;41245;45.384;20.390;2023-08-12T00:53:07;9.30;;;6.63;;
55364;SDS011;41245;45.384;20.390;2023-08-12T00:55:33;9.50;;;6.78;;
55364;SDS011;41245;45.384;20.390;2023-08-12T00:57:59;14.90;;;7.15;;
55364;SDS011;41245;45.384;20.390;2023-08-12T01:00:26;8.40;;;6.07;;
55364;SDS011;41245;45.384;20.390;2023-08-12T01:02:52;10.13;;;6.88;;
55364;SDS011;41245;45.384;20.390;2023-08-12T01:05:19;10.95;;;6.53;;
55364;SDS011;41245;45.384;20.390;2023-08-12T01:07:45;25.70;;;8.32;;
55364;SDS011;41245;45.384;20.390;2023-08-12T01:10:12;9.80;;;7.07;;
55364;SDS011;41245;45.384;20.390;2023-08-12T01:15:24;7.88;;;6.25;;
55364;SDS011;41245;45.384;20.390;2023-08-12T01:17:53;12.52;;;7.43;;
55364;SDS011;41245;45.384;20.390;2023-08-12T01:20:20;11.43;;;6.65;;
55364;SDS011;41245;45.384;20.390;2023-08-12T01:23:12;10.60;;;6.78;;
55364;SDS011;41245;45.384;20.390;2023-08-12T01:25:38;9.27;;;7.45;;
55364;SDS011;41245;45.384;20.390;2023-08-12T01:28:04;13.00;;;6.55;;
55364;SDS011;41245;45.384;20.390;2023-08-12T01:30:32;10.13;;;7.07;;
55364;SDS011;41245;45.384;20.390;2023-08-12T01:35:33;8.93;;;6.63;;
55364;SDS011;41245;45.384;20.390;2023-08-12T01:40:26;12.48;;;6.97;;
55364;SDS011;41245;45.384;20.390;2023-08-12T01:42:54;13.05;;;7.03;;
55364;SDS011;41245;45.384;20.390;2023-08-12T01:45:20;8.20;;;6.63;;
55364;SDS011;41245;45.384;20.390;2023-08-12T01:47:46;11.27;;;7.20;;
55364;SDS011;41245;45.384;20.390;2023-08-12T01:50:15;13.33;;;6.77;;
55364;SDS011;41245;45.384;20.390;2023-08-12T01:52:41;9.68;;;6.68;;
55364;SDS011;41245;45.384;20.390;2023-08-12T01:55:07;8.95;;;7.20;;
55364;SDS011;41245;45.384;20.390;2023-08-12T01:57:33;7.50;;;6.53;;
55364;SDS011;41245;45.384;20.390;2023-08-12T02:00:00;11.93;;;6.80;;
55364;SDS011;41245;45.384;20.390;2023-08-12T02:02:27;14.07;;;7.63;;
55364;SDS011;41245;45.384;20.390;2023-08-12T02:04:53;15.38;;;6.60;;
55364;SDS011;41245;45.384;20.390;2023-08-12T02:07:19;8.98;;;7.38;;
55364;SDS011;41245;45.384;20.390;2023-08-12T02:09:45;14.07;;;7.65;;
55364;SDS011;41245;45.384;20.390;2023-08-12T02:12:11;11.15;;;7.65;;
55364;SDS011;41245;45.384;20.390;2023-08-12T02:14:37;15.20;;;7.60;;
55364;SDS011;41245;45.384;20.390;2023-08-12T02:17:03;12.18;;;6.70;;
55364;SDS011;41245;45.384;20.390;2023-08-12T02:19:32;12.48;;;7.72;;
55364;SDS011;41245;45.384;20.390;2023-08-12T02:21:59;11.85;;;7.22;;
55364;SDS011;41245;45.384;20.390;2023-08-12T02:24:25;14.98;;;6.90;;
55364;SDS011;41245;45.384;20.390;2023-08-12T02:26:51;17.17;;;8.05;;
55364;SDS011;41245;45.384;20.390;2023-08-12T02:29:17;18.08;;;8.05;;
55364;SDS011;41245;45.384;20.390;2023-08-12T02:31:43;11.55;;;7.65;;
55364;SDS011;41245;45.384;20.390;2023-08-12T02:34:09;11.93;;;7.05;;
55364;SDS011;41245;45.384;20.390;2023-08-12T02:36:35;11.65;;;6.60;;
55364;SDS011;41245;45.384;20.390;2023-08-12T02:39:01;12.15;;;6.75;;
55364;SDS011;41245;45.384;20.390;2023-08-12T02:41:28;11.90;;;6.68;;
55364;SDS011;41245;45.384;20.390;2023-08-12T02:43:54;12.23;;;7.18;;
55364;SDS011;41245;45.384;20.390;2023-08-12T02:46:20;16.35;;;7.40;;
55364;SDS011;41245;45.384;20.390;2023-08-12T02:48:46;8.93;;;7.25;;
55364;SDS011;41245;45.384;20.390;2023-08-12T02:51:12;10.75;;;7.65;;
55364;SDS011;41245;45.384;20.390;2023-08-12T02:53:38;8.02;;;6.85;;
55364;SDS011;41245;45.384;20.390;2023-08-12T02:56:05;11.77;;;7.28;;
55364;SDS011;41245;45.384;20.390;2023-08-12T02:58:31;8.77;;;7.18;;
55364;SDS011;41245;45.384;20.390;2023-08-12T03:00:57;10.63;;;6.72;;
55364;SDS011;41245;45.384;20.390;2023-08-12T03:03:23;13.15;;;7.97;;
55364;SDS011;41245;45.384;20.390;2023-08-12T03:05:49;11.65;;;7.05;;
55364;SDS011;41245;45.384;20.390;2023-08-12T03:08:15;11.82;;;7.00;;
55364;SDS011;41245;45.384;20.390;2023-08-12T03:10:41;14.13;;;7.70;;
55364;SDS011;41245;45.384;20.390;2023-08-12T03:13:08;13.30;;;7.45;;
55364;SDS011;41245;45.384;20.390;2023-08-12T03:15:34;12.30;;;8.43;;
55364;SDS011;41245;45.384;20.390;2023-08-12T03:18:00;13.43;;;8.93;;
55364;SDS011;41245;45.384;20.390;2023-08-12T03:20:26;9.68;;;7.60;;
55364;SDS011;41245;45.384;20.390;2023-08-12T03:22:52;13.98;;;8.18;;
55364;SDS011;41245;45.384;20.390;2023-08-12T03:25:18;13.35;;;7.35;;
55364;SDS011;41245;45.384;20.390;2023-08-12T03:27:44;9.32;;;7.85;;
55364;SDS011;41245;45.384;20.390;2023-08-12T03:30:10;11.93;;;7.72;;
55364;SDS011;41245;45.384;20.390;2023-08-12T03:32:37;9.85;;;7.45;;
55364;SDS011;41245;45.384;20.390;2023-08-12T03:35:03;11.57;;;8.90;;
55364;SDS011;41245;45.384;20.390;2023-08-12T03:37:29;13.73;;;7.53;;
55364;SDS011;41245;45.384;20.390;2023-08-12T03:39:55;12.43;;;7.72;;
55364;SDS011;41245;45.384;20.390;2023-08-12T03:42:21;11.40;;;7.50;;
55364;SDS011;41245;45.384;20.390;2023-08-12T03:44:47;8.40;;;7.32;;
55364;SDS011;41245;45.384;20.390;2023-08-12T03:47:13;11.13;;;8.10;;
55364;SDS011;41245;45.384;20.390;2023-08-12T03:49:39;18.02;;;9.00;;
55364;SDS011;41245;45.384;20.390;2023-08-12T03:52:05;11.93;;;7.82;;
55364;SDS011;41245;45.384;20.390;2023-08-12T03:54:32;11.07;;;7.15;;
55364;SDS011;41245;45.384;20.390;2023-08-12T03:56:58;13.48;;;7.10;;
55364;SDS011;41245;45.384;20.390;2023-08-12T03:59:25;12.77;;;7.53;;
55364;SDS011;41245;45.384;20.390;2023-08-12T04:01:51;12.55;;;7.05;;
55364;SDS011;41245;45.384;20.390;2023-08-12T04:04:17;17.17;;;7.32;;
55364;SDS011;41245;45.384;20.390;2023-08-12T04:06:43;8.75;;;6.90;;
55364;SDS011;41245;45.384;20.390;2023-08-12T04:09:09;13.57;;;7.20;;
55364;SDS011;41245;45.384;20.390;2023-08-12T04:11:35;21.75;;;8.95;;
55364;SDS011;41245;45.384;20.390;2023-08-12T04:14:01;13.25;;;8.07;;
55364;SDS011;41245;45.384;20.390;2023-08-12T04:16:27;9.90;;;7.38;;
55364;SDS011;41245;45.384;20.390;2023-08-12T04:18:53;11.15;;;7.78;;
55364;SDS011;41245;45.384;20.390;2023-08-12T04:21:19;10.55;;;7.47;;
55364;SDS011;41245;45.384;20.390;2023-08-12T04:23:45;13.43;;;7.68;;
55364;SDS011;41245;45.384;20.390;2023-08-12T04:26:11;14.00;;;6.70;;
55364;SDS011;41245;45.384;20.390;2023-08-12T04:28:36;8.73;;;6.10;;
55364;SDS011;41245;45.384;20.390;2023-08-12T04:31:05;12.75;;;6.65;;
55364;SDS011;41245;45.384;20.390;2023-08-12T04:33:33;10.55;;;6.22;;
55364;SDS011;41245;45.384;20.390;2023-08-12T04:35:58;6.00;;;5.38;;
55364;SDS011;41245;45.384;20.390;2023-08-12T04:38:25;8.48;;;6.13;;
55364;SDS011;41245;45.384;20.390;2023-08-12T04:40:52;8.50;;;5.28;;
55364;SDS011;41245;45.384;20.390;2023-08-12T04:43:19;7.57;;;5.75;;
55364;SDS011;41245;45.384;20.390;2023-08-12T04:45:45;7.78;;;5.88;;
55364;SDS011;41245;45.384;20.390;2023-08-12T04:48:12;6.18;;;5.35;;
55364;SDS011;41245;45.384;20.390;2023-08-12T04:50:38;7.07;;;5.80;;
55364;SDS011;41245;45.384;20.390;2023-08-12T04:53:04;6.75;;;6.13;;
55364;SDS011;41245;45.384;20.390;2023-08-12T04:55:30;6.07;;;5.25;;
55364;SDS011;41245;45.384;20.390;2023-08-12T04:57:56;6.68;;;5.15;;
55364;SDS011;41245;45.384;20.390;2023-08-12T05:00:22;8.68;;;5.35;;
55364;SDS011;41245;45.384;20.390;2023-08-12T05:02:48;8.82;;;5.38;;
55364;SDS011;41245;45.384;20.390;2023-08-12T05:05:13;7.35;;;5.38;;
55364;SDS011;41245;45.384;20.390;2023-08-12T05:07:40;10.75;;;5.70;;
55364;SDS011;41245;45.384;20.390;2023-08-12T05:10:06;9.02;;;5.60;;
55364;SDS011;41245;45.384;20.390;2023-08-12T05:12:32;10.48;;;5.60;;
55364;SDS011;41245;45.384;20.390;2023-08-12T05:14:57;8.63;;;5.60;;
55364;SDS011;41245;45.384;20.390;2023-08-12T05:17:23;9.55;;;5.82;;
55364;SDS011;41245;45.384;20.390;2023-08-12T05:19:49;11.88;;;6.78;;
55364;SDS011;41245;45.384;20.390;2023-08-12T05:22:15;8.55;;;5.43;;
55364;SDS011;41245;45.384;20.390;2023-08-12T05:24:41;9.52;;;6.15;;
55364;SDS011;41245;45.384;20.390;2023-08-12T05:27:06;11.02;;;6.70;;
55364;SDS011;41245;45.384;20.390;2023-08-12T05:29:32;7.10;;;5.88;;
55364;SDS011;41245;45.384;20.390;2023-08-12T05:31:58;6.47;;;5.80;;
55364;SDS011;41245;45.384;20.390;2023-08-12T05:34:24;15.20;;;6.53;;
55364;SDS011;41245;45.384;20.390;2023-08-12T05:36:49;9.15;;;5.63;;
55364;SDS011;41245;45.384;20.390;2023-08-12T05:39:15;9.63;;;6.55;;
55364;SDS011;41245;45.384;20.390;2023-08-12T05:41:42;8.10;;;6.25;;
55364;SDS011;41245;45.384;20.390;2023-08-12T05:44:08;10.48;;;6.85;;
55364;SDS011;41245;45.384;20.390;2023-08-12T05:46:34;14.15;;;7.55;;
55364;SDS011;41245;45.384;20.390;2023-08-12T05:49:00;10.88;;;7.13;;
55364;SDS011;41245;45.384;20.390;2023-08-12T05:51:26;11.77;;;7.82;;
55364;SDS011;41245;45.384;20.390;2023-08-12T05:53:52;11.40;;;7.65;;
55364;SDS011;41245;45.384;20.390;2023-08-12T05:56:18;11.50;;;7.55;;
55364;SDS011;41245;45.384;20.390;2023-08-12T05:58:44;12.32;;;8.05;;
55364;SDS011;41245;45.384;20.390;2023-08-12T06:01:10;14.00;;;8.27;;
55364;SDS011;41245;45.384;20.390;2023-08-12T06:03:36;9.25;;;7.40;;
55364;SDS011;41245;45.384;20.390;2023-08-12T06:06:02;11.60;;;7.78;;
55364;SDS011;41245;45.384;20.390;2023-08-12T06:08:28;12.00;;;7.15;;
55364;SDS011;41245;45.384;20.390;2023-08-12T06:10:54;13.93;;;7.40;;
55364;SDS011;41245;45.384;20.390;2023-08-12T06:13:19;10.75;;;7.40;;
55364;SDS011;41245;45.384;20.390;2023-08-12T06:15:45;10.82;;;7.07;;
55364;SDS011;41245;45.384;20.390;2023-08-12T06:18:11;7.85;;;6.20;;
55364;SDS011;41245;45.384;20.390;2023-08-12T06:20:36;13.25;;;7.53;;
55364;SDS011;41245;45.384;20.390;2023-08-12T06:23:02;14.15;;;7.57;;
55364;SDS011;41245;45.384;20.390;2023-08-12T06:25:28;11.40;;;8.60;;
55364;SDS011;41245;45.384;20.390;2023-08-12T06:27:54;11.77;;;7.72;;
55364;SDS011;41245;45.384;20.390;2023-08-12T06:30:19;12.10;;;7.03;;
55364;SDS011;41245;45.384;20.390;2023-08-12T06:32:45;12.30;;;7.35;;
55364;SDS011;41245;45.384;20.390;2023-08-12T06:35:11;12.80;;;6.45;;
55364;SDS011;41245;45.384;20.390;2023-08-12T06:37:36;10.48;;;6.53;;
55364;SDS011;41245;45.384;20.390;2023-08-12T06:40:02;13.13;;;6.80;;
55364;SDS011;41245;45.384;20.390;2023-08-12T06:42:29;11.85;;;6.50;;
55364;SDS011;41245;45.384;20.390;2023-08-12T06:44:58;11.40;;;6.05;;
55364;SDS011;41245;45.384;20.390;2023-08-12T06:47:24;5.93;;;4.70;;
55364;SDS011;41245;45.384;20.390;2023-08-12T06:49:52;7.60;;;6.07;;
55364;SDS011;41245;45.384;20.390;2023-08-12T06:52:18;7.07;;;5.53;;
55364;SDS011;41245;45.384;20.390;2023-08-12T06:54:44;7.03;;;5.60;;
55364;SDS011;41245;45.384;20.390;2023-08-12T06:57:10;7.35;;;4.78;;
55364;SDS011;41245;45.384;20.390;2023-08-12T06:59:36;5.93;;;4.90;;
55364;SDS011;41245;45.384;20.390;2023-08-12T07:02:03;9.82;;;4.75;;
55364;SDS011;41245;45.384;20.390;2023-08-12T07:04:29;4.63;;;3.83;;
55364;SDS011;41245;45.384;20.390;2023-08-12T07:06:54;5.65;;;3.70;;
55364;SDS011;41245;45.384;20.390;2023-08-12T07:09:20;4.57;;;4.00;;
55364;SDS011;41245;45.384;20.390;2023-08-12T07:11:46;6.35;;;3.70;;
55364;SDS011;41245;45.384;20.390;2023-08-12T07:14:12;3.95;;;3.28;;
55364;SDS011;41245;45.384;20.390;2023-08-12T07:16:37;8.98;;;3.97;;
55364;SDS011;41245;45.384;20.390;2023-08-12T07:19:03;6.57;;;2.72;;
55364;SDS011;41245;45.384;20.390;2023-08-12T07:21:29;4.18;;;2.95;;
55364;SDS011;41245;45.384;20.390;2023-08-12T07:23:55;2.78;;;2.58;;
55364;SDS011;41245;45.384;20.390;2023-08-12T07:26:20;3.65;;;2.47;;
55364;SDS011;41245;45.384;20.390;2023-08-12T07:28:46;3.17;;;2.78;;
55364;SDS011;41245;45.384;20.390;2023-08-12T07:31:13;3.17;;;2.50;;
55364;SDS011;41245;45.384;20.390;2023-08-12T07:33:38;3.45;;;2.70;;
55364;SDS011;41245;45.384;20.390;2023-08-12T07:36:04;3.92;;;2.70;;
55364;SDS011;41245;45.384;20.390;2023-08-12T07:38:31;5.97;;;2.90;;
55364;SDS011;41245;45.384;20.390;2023-08-12T07:40:57;5.25;;;2.72;;
55364;SDS011;41245;45.384;20.390;2023-08-12T07:43:23;6.80;;;2.65;;
55364;SDS011;41245;45.384;20.390;2023-08-12T07:45:52;5.43;;;3.88;;
55364;SDS011;41245;45.384;20.390;2023-08-12T07:48:19;7.57;;;3.45;;
55364;SDS011;41245;45.384;20.390;2023-08-12T07:50:45;4.25;;;2.80;;
55364;SDS011;41245;45.384;20.390;2023-08-12T07:53:14;3.75;;;2.60;;
55364;SDS011;41245;45.384;20.390;2023-08-12T07:55:40;2.90;;;2.40;;
55364;SDS011;41245;45.384;20.390;2023-08-12T07:58:06;4.80;;;2.53;;
55364;SDS011;41245;45.384;20.390;2023-08-12T08:00:32;3.65;;;2.90;;
55364;SDS011;41245;45.384;20.390;2023-08-12T08:02:59;4.22;;;2.25;;
55364;SDS011;41245;45.384;20.390;2023-08-12T08:05:25;5.55;;;2.45;;
55364;SDS011;41245;45.384;20.390;2023-08-12T08:07:51;2.65;;;2.20;;
55364;SDS011;41245;45.384;20.390;2023-08-12T08:10:17;4.68;;;3.30;;
55364;SDS011;41245;45.384;20.390;2023-08-12T08:12:43;3.05;;;2.60;;
55364;SDS011;41245;45.384;20.390;2023-08-12T08:15:09;3.00;;;2.20;;
55364;SDS011;41245;45.384;20.390;2023-08-12T08:17:35;3.08;;;2.15;;
55364;SDS011;41245;45.384;20.390;2023-08-12T08:20:01;5.82;;;4.13;;
55364;SDS011;41245;45.384;20.390;2023-08-12T08:22:28;8.52;;;4.13;;
55364;SDS011;41245;45.384;20.390;2023-08-12T08:24:54;3.63;;;2.78;;
55364;SDS011;41245;45.384;20.390;2023-08-12T08:27:20;2.50;;;2.00;;
55364;SDS011;41245;45.384;20.390;2023-08-12T08:29:46;3.70;;;2.28;;
55364;SDS011;41245;45.384;20.390;2023-08-12T08:32:12;2.55;;;2.05;;
55364;SDS011;41245;45.384;20.390;2023-08-12T08:34:38;3.17;;;2.58;;
55364;SDS011;41245;45.384;20.390;2023-08-12T08:37:04;4.63;;;2.53;;
55364;SDS011;41245;45.384;20.390;2023-08-12T08:39:30;2.80;;;2.50;;
55364;SDS011;41245;45.384;20.390;2023-08-12T08:41:56;8.65;;;4.97;;
55364;SDS011;41245;45.384;20.390;2023-08-12T08:44:24;1.90;;;1.80;;
55364;SDS011;41245;45.384;20.390;2023-08-12T08:46:53;4.57;;;2.38;;
55364;SDS011;41245;45.384;20.390;2023-08-12T08:49:20;2.95;;;2.25;;
55364;SDS011;41245;45.384;20.390;2023-08-12T08:51:46;2.10;;;1.90;;
55364;SDS011;41245;45.384;20.390;2023-08-12T08:54:12;5.55;;;1.98;;
55364;SDS011;41245;45.384;20.390;2023-08-12T08:56:39;4.28;;;1.83;;
55364;SDS011;41245;45.384;20.390;2023-08-12T08:59:05;3.67;;;2.15;;
55364;SDS011;41245;45.384;20.390;2023-08-12T09:01:31;2.42;;;2.20;;
55364;SDS011;41245;45.384;20.390;2023-08-12T09:03:57;3.10;;;2.65;;
55364;SDS011;41245;45.384;20.390;2023-08-12T09:06:24;8.13;;;2.28;;
55364;SDS011;41245;45.384;20.390;2023-08-12T09:08:51;3.45;;;2.30;;
55364;SDS011;41245;45.384;20.390;2023-08-12T09:11:17;2.42;;;1.75;;
55364;SDS011;41245;45.384;20.390;2023-08-12T09:13:44;2.20;;;2.00;;
55364;SDS011;41245;45.384;20.390;2023-08-12T09:16:10;3.75;;;2.70;;
55364;SDS011;41245;45.384;20.390;2023-08-12T09:18:36;2.40;;;2.20;;
55364;SDS011;41245;45.384;20.390;2023-08-12T09:21:03;3.70;;;2.63;;
55364;SDS011;41245;45.384;20.390;2023-08-12T09:23:39;2.30;;;2.00;;
55364;SDS011;41245;45.384;20.390;2023-08-12T09:26:16;5.55;;;1.95;;
55364;SDS011;41245;45.384;20.390;2023-08-12T09:28:42;4.13;;;2.35;;
55364;SDS011;41245;45.384;20.390;2023-08-12T09:31:21;7.25;;;3.67;;
55364;SDS011;41245;45.384;20.390;2023-08-12T09:33:48;2.00;;;1.80;;
55364;SDS011;41245;45.384;20.390;2023-08-12T09:36:15;2.50;;;2.00;;
55364;SDS011;41245;45.384;20.390;2023-08-12T09:38:41;5.75;;;2.13;;
55364;SDS011;41245;45.384;20.390;2023-08-12T09:41:08;7.22;;;2.20;;
55364;SDS011;41245;45.384;20.390;2023-08-12T09:43:34;9.40;;;2.30;;
55364;SDS011;41245;45.384;20.390;2023-08-12T09:46:00;10.38;;;3.15;;
55364;SDS011;41245;45.384;20.390;2023-08-12T09:48:26;3.38;;;1.90;;
55364;SDS011;41245;45.384;20.390;2023-08-12T09:50:53;7.57;;;2.33;;
55364;SDS011;41245;45.384;20.390;2023-08-12T09:53:21;3.08;;;2.53;;
55364;SDS011;41245;45.384;20.390;2023-08-12T09:55:47;3.80;;;2.70;;
55364;SDS011;41245;45.384;20.390;2023-08-12T09:58:15;2.72;;;2.35;;
55364;SDS011;41245;45.384;20.390;2023-08-12T10:00:42;5.47;;;2.05;;
55364;SDS011;41245;45.384;20.390;2023-08-12T10:03:08;2.45;;;2.22;;
55364;SDS011;41245;45.384;20.390;2023-08-12T10:05:39;2.72;;;2.20;;
55364;SDS011;41245;45.384;20.390;2023-08-12T10:08:05;4.03;;;2.28;;
55364;SDS011;41245;45.384;20.390;2023-08-12T10:10:34;2.42;;;2.00;;
55364;SDS011;41245;45.384;20.390;2023-08-12T10:13:00;11.13;;;3.42;;
55364;SDS011;41245;45.384;20.390;2023-08-12T10:15:27;8.63;;;2.83;;
55364;SDS011;41245;45.384;20.390;2023-08-12T10:17:54;5.28;;;2.05;;
55364;SDS011;41245;45.384;20.390;2023-08-12T10:20:25;2.42;;;2.03;;
55364;SDS011;41245;45.384;20.390;2023-08-12T10:22:52;2.97;;;2.22;;
55364;SDS011;41245;45.384;20.390;2023-08-12T10:25:20;3.38;;;2.22;;
55364;SDS011;41245;45.384;20.390;2023-08-12T10:27:49;2.22;;;1.95;;
55364;SDS011;41245;45.384;20.390;2023-08-12T10:30:15;2.30;;;2.10;;
55364;SDS011;41245;45.384;20.390;2023-08-12T10:32:42;3.05;;;2.03;;
55364;SDS011;41245;45.384;20.390;2023-08-12T10:35:08;3.58;;;2.08;;
55364;SDS011;41245;45.384;20.390;2023-08-12T10:37:35;2.00;;;1.80;;
55364;SDS011;41245;45.384;20.390;2023-08-12T10:40:04;2.83;;;1.77;;
55364;SDS011;41245;45.384;20.390;2023-08-12T10:42:43;3.28;;;2.50;;
55364;SDS011;41245;45.384;20.390;2023-08-12T10:45:10;6.00;;;2.15;;
55364;SDS011;41245;45.384;20.390;2023-08-12T10:48:20;3.55;;;2.20;;
55364;SDS011;41245;45.384;20.390;2023-08-12T10:50:25;6.60;;;2.10;;
55364;SDS011;41245;45.384;20.390;2023-08-12T10:52:52;4.38;;;2.10;;
55364;SDS011;41245;45.384;20.390;2023-08-12T10:55:23;3.10;;;2.60;;
55364;SDS011;41245;45.384;20.390;2023-08-12T10:57:49;4.75;;;2.78;;
55364;SDS011;41245;45.384;20.390;2023-08-12T11:00:17;2.35;;;1.83;;
55364;SDS011;41245;45.384;20.390;2023-08-12T11:02:48;2.42;;;2.13;;
55364;SDS011;41245;45.384;20.390;2023-08-12T11:05:15;5.47;;;2.60;;
55364;SDS011;41245;45.384;20.390;2023-08-12T11:08:15;2.63;;;2.42;;
55364;SDS011;41245;45.384;20.390;2023-08-12T11:10:34;5.25;;;1.95;;
55364;SDS011;41245;45.384;20.390;2023-08-12T11:13:01;6.22;;;2.13;;
55364;SDS011;41245;45.384;20.390;2023-08-12T11:15:37;5.28;;;2.47;;
55364;SDS011;41245;45.384;20.390;2023-08-12T11:18:10;3.55;;;2.13;;
55364;SDS011;41245;45.384;20.390;2023-08-12T11:20:38;3.20;;;1.92;;
55364;SDS011;41245;45.384;20.390;2023-08-12T11:23:04;4.95;;;2.20;;
55364;SDS011;41245;45.384;20.390;2023-08-12T11:25:31;3.97;;;1.67;;
55364;SDS011;41245;45.384;20.390;2023-08-12T11:27:57;2.83;;;1.95;;
55364;SDS011;41245;45.384;20.390;2023-08-12T11:30:24;4.93;;;3.20;;
55364;SDS011;41245;45.384;20.390;2023-08-12T11:32:51;2.60;;;2.40;;
55364;SDS011;41245;45.384;20.390;2023-08-12T11:35:18;2.13;;;1.90;;
55364;SDS011;41245;45.384;20.390;2023-08-12T11:37:45;4.45;;;2.28;;
55364;SDS011;41245;45.384;20.390;2023-08-12T11:40:12;4.53;;;1.85;;
55364;SDS011;41245;45.384;20.390;2023-08-12T11:42:40;4.68;;;2.05;;
55364;SDS011;41245;45.384;20.390;2023-08-12T11:45:06;2.33;;;2.13;;
55364;SDS011;41245;45.384;20.390;2023-08-12T11:47:34;4.50;;;1.98;;
55364;SDS011;41245;45.384;20.390;2023-08-12T11:50:03;3.10;;;1.88;;
55364;SDS011;41245;45.384;20.390;2023-08-12T11:52:30;2.00;;;1.80;;
55364;SDS011;41245;45.384;20.390;2023-08-12T11:54:56;4.97;;;1.85;;
55364;SDS011;41245;45.384;20.390;2023-08-12T11:57:22;4.47;;;1.90;;
55364;SDS011;41245;45.384;20.390;2023-08-12T11:59:52;2.25;;;2.00;;
55364;SDS011;41245;45.384;20.390;2023-08-12T12:02:19;3.38;;;2.15;;
55364;SDS011;41245;45.384;20.390;2023-08-12T12:04:46;2.10;;;1.90;;
55364;SDS011;41245;45.384;20.390;2023-08-12T12:07:18;5.22;;;2.28;;
55364;SDS011;41245;45.384;20.390;2023-08-12T12:09:44;3.38;;;2.60;;
55364;SDS011;41245;45.384;20.390;2023-08-12T12:12:10;3.10;;;2.42;;
55364;SDS011;41245;45.384;20.390;2023-08-12T12:14:37;6.65;;;2.00;;
55364;SDS011;41245;45.384;20.390;2023-08-12T12:17:07;4.70;;;2.10;;
55364;SDS011;41245;45.384;20.390;2023-08-12T12:19:34;3.65;;;2.47;;
55364;SDS011;41245;45.384;20.390;2023-08-12T12:22:01;7.45;;;2.80;;
55364;SDS011;41245;45.384;20.390;2023-08-12T12:24:28;3.90;;;1.98;;
55364;SDS011;41245;45.384;20.390;2023-08-12T12:26:55;3.58;;;2.25;;
55364;SDS011;41245;45.384;20.390;2023-08-12T12:29:22;3.15;;;2.45;;
55364;SDS011;41245;45.384;20.390;2023-08-12T12:31:48;3.05;;;2.10;;
55364;SDS011;41245;45.384;20.390;2023-08-12T12:34:14;2.72;;;2.33;;
55364;SDS011;41245;45.384;20.390;2023-08-12T12:36:40;4.60;;;3.97;;
55364;SDS011;41245;45.384;20.390;2023-08-12T12:39:06;2.40;;;2.00;;
55364;SDS011;41245;45.384;20.390;2023-08-12T12:41:33;4.43;;;3.35;;
55364;SDS011;41245;45.384;20.390;2023-08-12T12:43:59;6.00;;;3.15;;
55364;SDS011;41245;45.384;20.390;2023-08-12T12:46:27;4.25;;;2.00;;
55364;SDS011;41245;45.384;20.390;2023-08-12T12:48:53;1.80;;;1.70;;
55364;SDS011;41245;45.384;20.390;2023-08-12T12:51:19;3.17;;;2.15;;
55364;SDS011;41245;45.384;20.390;2023-08-12T12:53:45;2.33;;;1.75;;
55364;SDS011;41245;45.384;20.390;2023-08-12T12:56:11;2.80;;;1.73;;
55364;SDS011;41245;45.384;20.390;2023-08-12T12:58:37;6.22;;;2.20;;
55364;SDS011;41245;45.384;20.390;2023-08-12T13:01:04;2.25;;;2.00;;
55364;SDS011;41245;45.384;20.390;2023-08-12T13:03:30;6.43;;;2.08;;
55364;SDS011;41245;45.384;20.390;2023-08-12T13:05:56;12.48;;;2.35;;
55364;SDS011;41245;45.384;20.390;2023-08-12T13:08:23;3.38;;;2.35;;
55364;SDS011;41245;45.384;20.390;2023-08-12T13:10:49;4.80;;;2.10;;
55364;SDS011;41245;45.384;20.390;2023-08-12T13:13:15;4.20;;;2.15;;
55364;SDS011;41245;45.384;20.390;2023-08-12T13:15:42;3.47;;;2.55;;
55364;SDS011;41245;45.384;20.390;2023-08-12T13:18:08;2.75;;;2.08;;
55364;SDS011;41245;45.384;20.390;2023-08-12T13:20:35;2.65;;;1.88;;
55364;SDS011;41245;45.384;20.390;2023-08-12T13:23:01;2.78;;;1.98;;
55364;SDS011;41245;45.384;20.390;2023-08-12T13:25:28;3.97;;;1.80;;
55364;SDS011;41245;45.384;20.390;2023-08-12T13:27:54;2.13;;;1.92;;
55364;SDS011;41245;45.384;20.390;2023-08-12T13:30:20;2.25;;;1.65;;
55364;SDS011;41245;45.384;20.390;2023-08-12T13:32:46;2.63;;;2.05;;
55364;SDS011;41245;45.384;20.390;2023-08-12T13:35:12;5.10;;;1.95;;
55364;SDS011;41245;45.384;20.390;2023-08-12T13:37:38;4.45;;;2.00;;
55364;SDS011;41245;45.384;20.390;2023-08-12T13:40:05;4.82;;;1.73;;
55364;SDS011;41245;45.384;20.390;2023-08-12T13:42:31;8.85;;;2.33;;
55364;SDS011;41245;45.384;20.390;2023-08-12T13:44:57;2.28;;;2.08;;
55364;SDS011;41245;45.384;20.390;2023-08-12T13:47:23;2.85;;;1.80;;
55364;SDS011;41245;45.384;20.390;2023-08-12T13:49:49;6.20;;;2.08;;
55364;SDS011;41245;45.384;20.390;2023-08-12T13:52:15;4.32;;;2.20;;
55364;SDS011;41245;45.384;20.390;2023-08-12T13:54:41;6.40;;;2.75;;
55364;SDS011;41245;45.384;20.390;2023-08-12T13:57:07;3.03;;;1.88;;
55364;SDS011;41245;45.384;20.390;2023-08-12T13:59:33;2.08;;;1.75;;
55364;SDS011;41245;45.384;20.390;2023-08-12T14:01:59;3.60;;;2.95;;
55364;SDS011;41245;45.384;20.390;2023-08-12T14:04:25;5.30;;;2.20;;
55364;SDS011;41245;45.384;20.390;2023-08-12T14:06:51;4.55;;;3.25;;
55364;SDS011;41245;45.384;20.390;2023-08-12T14:09:17;7.43;;;3.90;;
55364;SDS011;41245;45.384;20.390;2023-08-12T14:11:45;2.85;;;2.28;;
55364;SDS011;41245;45.384;20.390;2023-08-12T14:14:11;5.30;;;3.03;;
55364;SDS011;41245;45.384;20.390;2023-08-12T14:16:37;7.70;;;2.65;;
55364;SDS011;41245;45.384;20.390;2023-08-12T14:19:03;6.00;;;2.28;;
55364;SDS011;41245;45.384;20.390;2023-08-12T14:21:29;3.00;;;2.15;;
55364;SDS011;41245;45.384;20.390;2023-08-12T14:23:55;5.18;;;1.92;;
55364;SDS011;41245;45.384;20.390;2023-08-12T14:26:21;1.95;;;1.67;;
55364;SDS011;41245;45.384;20.390;2023-08-12T14:28:47;2.83;;;2.17;;
55364;SDS011;41245;45.384;20.390;2023-08-12T14:31:13;3.90;;;1.45;;
55364;SDS011;41245;45.384;20.390;2023-08-12T14:33:39;1.90;;;1.70;;
55364;SDS011;41245;45.384;20.390;2023-08-12T14:36:05;2.03;;;1.88;;